createdAt,value
2019-02-11T00:00:50.969Z,22.65
2019-02-11T00:01:52.703Z,22.65
2019-02-11T00:02:55.026Z,22.65
2019-02-11T00:03:59.729Z,22.65
2019-02-11T00:04:59.550Z,22.63
2019-02-11T00:06:00.960Z,22.65
2019-02-11T00:07:02.410Z,22.66
2019-02-11T00:08:03.792Z,22.66
2019-02-11T00:09:07.302Z,22.66
2019-02-11T00:10:09.338Z,22.67
2019-02-11T00:11:10.868Z,22.67
2019-02-11T00:12:12.302Z,22.67
2019-02-11T00:13:13.714Z,22.67
2019-02-11T00:14:15.191Z,22.68
2019-02-11T00:15:16.471Z,22.68
2019-02-11T00:16:19.062Z,22.68
2019-02-11T00:17:20.442Z,22.68
2019-02-11T00:18:22.066Z,22.68
2019-02-11T00:19:23.398Z,22.69
2019-02-11T00:20:24.664Z,22.69
2019-02-11T00:21:25.952Z,22.69
2019-02-11T00:22:27.219Z,22.69
2019-02-11T00:23:28.668Z,22.69
2019-02-11T00:24:30.035Z,22.70
2019-02-11T00:25:31.390Z,22.68
2019-02-11T00:26:33.056Z,22.68
2019-02-11T00:27:36.430Z,22.69
2019-02-11T00:28:37.860Z,22.68
2019-02-11T00:29:39.470Z,22.67
2019-02-11T00:30:40.802Z,22.67
2019-02-11T00:31:42.142Z,22.66
2019-02-11T00:32:43.439Z,22.66
2019-02-11T00:33:44.743Z,22.67
2019-02-11T00:34:46.178Z,22.67
2019-02-11T00:35:47.495Z,22.67
2019-02-11T00:36:48.735Z,22.67
2019-02-11T00:37:50.061Z,22.68
2019-02-11T00:38:51.340Z,22.69
2019-02-11T00:39:52.753Z,22.68
2019-02-11T00:40:53.995Z,22.68
2019-02-11T00:41:55.371Z,22.67
2019-02-11T00:42:56.949Z,22.67
2019-02-11T00:43:58.383Z,22.68
2019-02-11T00:44:59.905Z,22.68
2019-02-11T00:46:01.343Z,22.69
2019-02-11T00:47:02.673Z,22.69
2019-02-11T00:48:04.045Z,22.69
2019-02-11T00:49:05.562Z,22.69
2019-02-11T00:50:09.093Z,22.69
2019-02-11T00:51:10.431Z,22.69
2019-02-11T00:52:12.118Z,22.70
2019-02-11T00:53:13.438Z,22.70
2019-02-11T00:54:14.853Z,22.69
2019-02-11T00:55:16.159Z,22.69
2019-02-11T00:56:17.541Z,22.68
2019-02-11T00:57:19.037Z,22.68
2019-02-11T00:58:20.362Z,22.68
2019-02-11T00:59:21.627Z,22.69
2019-02-11T01:00:23.095Z,22.69
2019-02-11T01:01:24.559Z,22.70
2019-02-11T01:02:25.864Z,22.70
2019-02-11T01:03:27.534Z,22.71
2019-02-11T01:04:28.852Z,22.70
2019-02-11T01:05:30.112Z,22.72
2019-02-11T01:06:31.795Z,22.72
2019-02-11T01:07:33.151Z,22.72
2019-02-11T01:08:34.431Z,22.71
2019-02-11T01:09:37.439Z,22.67
2019-02-11T01:10:38.796Z,22.71
2019-02-11T01:11:40.267Z,22.70
2019-02-11T01:12:41.654Z,22.70
2019-02-11T01:13:42.972Z,22.69
2019-02-11T01:14:44.358Z,22.68
2019-02-11T01:15:45.648Z,22.69
2019-02-11T01:16:46.950Z,22.69
2019-02-11T01:17:48.234Z,22.70
2019-02-11T01:18:49.514Z,22.70
2019-02-11T01:19:50.907Z,22.70
2019-02-11T01:20:52.192Z,22.70
2019-02-11T01:21:53.668Z,22.70
2019-02-11T01:22:57.336Z,22.69
2019-02-11T01:23:58.645Z,22.70
2019-02-11T01:25:00.253Z,22.70
2019-02-11T01:26:01.517Z,22.69
2019-02-11T01:27:03.163Z,22.71
2019-02-11T01:28:04.536Z,22.71
2019-02-11T01:29:05.830Z,22.71
2019-02-11T01:30:09.860Z,22.70
2019-02-11T01:31:13.552Z,22.70
2019-02-11T01:32:15.109Z,22.70
2019-02-11T01:33:16.572Z,22.70
2019-02-11T01:34:17.822Z,22.70
2019-02-11T01:35:19.353Z,22.70
2019-02-11T01:36:20.891Z,22.69
2019-02-11T01:37:22.164Z,22.70
2019-02-11T01:38:23.765Z,22.70
2019-02-11T01:39:25.127Z,22.70
2019-02-11T01:40:26.485Z,22.70
2019-02-11T01:41:27.899Z,22.70
2019-02-11T01:42:29.137Z,22.69
2019-02-11T01:43:36.135Z,22.71
2019-02-11T01:44:35.613Z,22.71
2019-02-11T01:45:36.855Z,22.69
2019-02-11T01:46:38.139Z,22.69
2019-02-11T01:47:41.485Z,22.70
2019-02-11T01:48:43.187Z,22.70
2019-02-11T01:49:44.566Z,22.70
2019-02-11T01:50:45.884Z,22.69
2019-02-11T01:51:47.419Z,22.69
2019-02-11T01:52:48.679Z,22.68
2019-02-11T01:53:50.015Z,22.69
2019-02-11T01:54:51.460Z,22.69
2019-02-11T01:55:52.809Z,22.69
2019-02-11T01:56:54.037Z,22.69
2019-02-11T01:57:55.297Z,22.70
2019-02-11T01:58:56.553Z,22.70
2019-02-11T01:59:58.203Z,22.69
2019-02-11T02:00:59.422Z,22.69
2019-02-11T02:02:00.840Z,22.69
2019-02-11T02:03:02.508Z,22.68
2019-02-11T02:04:03.762Z,22.69
2019-02-11T02:05:06.667Z,22.68
2019-02-11T02:06:09.138Z,22.68
2019-02-11T02:07:10.515Z,22.68
2019-02-11T02:08:11.856Z,22.68
2019-02-11T02:09:13.497Z,22.68
2019-02-11T02:10:14.928Z,22.68
2019-02-11T02:11:16.301Z,22.68
2019-02-11T02:12:17.530Z,22.68
2019-02-11T02:13:18.811Z,22.68
2019-02-11T02:14:20.223Z,22.68
2019-02-11T02:15:22.656Z,22.69
2019-02-11T02:16:24.032Z,22.67
2019-02-11T02:17:27.658Z,22.68
2019-02-11T02:18:28.895Z,22.68
2019-02-11T02:19:30.138Z,22.69
2019-02-11T02:20:31.436Z,22.68
2019-02-11T02:21:32.796Z,22.69
2019-02-11T02:22:34.317Z,22.70
2019-02-11T02:23:35.665Z,22.70
2019-02-11T02:24:37.181Z,22.70
2019-02-11T02:25:38.518Z,22.71
2019-02-11T02:26:39.789Z,22.70
2019-02-11T02:27:41.093Z,22.72
2019-02-11T02:28:42.418Z,22.70
2019-02-11T02:29:43.734Z,22.70
2019-02-11T02:30:44.997Z,22.71
2019-02-11T02:31:46.297Z,22.70
2019-02-11T02:32:47.938Z,22.71
2019-02-11T02:33:49.389Z,22.70
2019-02-11T02:34:51.137Z,22.71
2019-02-11T02:35:52.590Z,22.71
2019-02-11T02:36:54.150Z,22.71
2019-02-11T02:37:55.427Z,22.69
2019-02-11T02:38:56.842Z,22.69
2019-02-11T02:39:58.113Z,22.71
2019-02-11T02:40:59.381Z,22.71
2019-02-11T02:42:00.875Z,22.73
2019-02-11T02:43:02.321Z,22.73
2019-02-11T02:44:03.765Z,22.74
2019-02-11T02:45:07.310Z,22.74
2019-02-11T02:46:08.579Z,22.75
2019-02-11T02:47:10.003Z,22.74
2019-02-11T02:48:11.326Z,22.74
2019-02-11T02:49:12.567Z,22.75
2019-02-11T02:50:14.225Z,22.76
2019-02-11T02:51:15.787Z,22.77
2019-02-11T02:52:16.999Z,22.77
2019-02-11T02:53:18.429Z,22.78
2019-02-11T02:54:19.858Z,22.78
2019-02-11T02:55:22.518Z,22.79
2019-02-11T02:56:23.930Z,22.79
2019-02-11T02:57:25.176Z,22.79
2019-02-11T02:58:26.558Z,22.79
2019-02-11T02:59:27.804Z,22.81
2019-02-11T03:00:29.167Z,22.81
2019-02-11T03:01:30.446Z,22.81
2019-02-11T03:02:31.819Z,22.82
2019-02-11T03:03:33.196Z,22.82
2019-02-11T03:04:34.554Z,22.83
2019-02-11T03:05:36.281Z,22.83
2019-02-11T03:06:37.649Z,22.84
2019-02-11T03:07:38.927Z,22.85
2019-02-11T03:08:40.782Z,22.85
2019-02-11T03:09:42.473Z,22.87
2019-02-11T03:10:44.749Z,22.87
2019-02-11T03:11:46.006Z,22.81
2019-02-11T03:12:47.280Z,22.86
2019-02-11T03:13:48.753Z,22.86
2019-02-11T03:14:50.005Z,22.84
2019-02-11T03:15:51.610Z,22.84
2019-02-11T03:16:53.083Z,22.84
2019-02-11T03:17:54.487Z,22.84
2019-02-11T03:18:55.964Z,22.84
2019-02-11T03:19:58.418Z,22.83
2019-02-11T03:20:59.932Z,22.83
2019-02-11T03:22:01.166Z,22.83
2019-02-11T03:23:02.550Z,22.82
2019-02-11T03:24:04.234Z,22.82
2019-02-11T03:25:06.791Z,22.81
2019-02-11T03:26:08.225Z,22.80
2019-02-11T03:27:09.510Z,22.79
2019-02-11T03:28:10.973Z,22.80
2019-02-11T03:29:12.302Z,22.79
2019-02-11T03:30:13.565Z,22.79
2019-02-11T03:31:15.023Z,22.79
2019-02-11T03:32:16.489Z,22.77
2019-02-11T03:33:17.770Z,22.78
2019-02-11T03:34:19.164Z,22.77
2019-02-11T03:35:20.583Z,22.77
2019-02-11T03:36:21.854Z,22.77
2019-02-11T03:37:23.293Z,22.76
2019-02-11T03:38:24.571Z,22.75
2019-02-11T03:39:25.849Z,22.75
2019-02-11T03:40:27.073Z,22.74
2019-02-11T03:41:28.594Z,22.75
2019-02-11T03:42:30.215Z,22.75
2019-02-11T03:43:31.519Z,22.76
2019-02-11T03:44:32.979Z,22.75
2019-02-11T03:45:34.447Z,22.76
2019-02-11T03:46:35.765Z,22.76
2019-02-11T03:47:37.208Z,22.76
2019-02-11T03:48:38.541Z,22.77
2019-02-11T03:49:39.905Z,22.77
2019-02-11T03:50:41.380Z,22.80
2019-02-11T03:51:42.951Z,22.81
2019-02-11T03:52:44.279Z,22.82
2019-02-11T03:53:45.823Z,22.83
2019-02-11T03:54:47.152Z,22.83
2019-02-11T03:55:48.484Z,22.83
2019-02-11T03:56:49.820Z,22.85
2019-02-11T03:57:51.314Z,22.85
2019-02-11T03:58:52.610Z,22.87
2019-02-11T03:59:53.862Z,22.88
2019-02-11T04:00:55.140Z,22.88
2019-02-11T04:01:56.654Z,22.89
2019-02-11T04:02:58.093Z,22.90
2019-02-11T04:03:59.366Z,22.89
2019-02-11T04:05:00.776Z,22.89
2019-02-11T04:06:02.030Z,22.90
2019-02-11T04:07:03.278Z,22.90
2019-02-11T04:08:04.726Z,22.90
2019-02-11T04:09:06.009Z,22.90
2019-02-11T04:10:09.006Z,22.89
2019-02-11T04:11:10.371Z,22.88
2019-02-11T04:12:11.933Z,22.87
2019-02-11T04:13:13.450Z,22.87
2019-02-11T04:14:24.128Z,22.83
2019-02-11T04:15:18.115Z,22.83
2019-02-11T04:16:19.389Z,22.82
2019-02-11T04:17:20.635Z,22.80
2019-02-11T04:18:21.905Z,22.81
2019-02-11T04:19:23.209Z,22.81
2019-02-11T04:20:24.574Z,22.81
2019-02-11T04:21:25.859Z,22.80
2019-02-11T04:22:27.339Z,22.80
2019-02-11T04:23:28.829Z,22.80
2019-02-11T04:24:30.195Z,22.80
2019-02-11T04:25:31.741Z,22.80
2019-02-11T04:26:33.265Z,22.80
2019-02-11T04:27:34.565Z,22.80
2019-02-11T04:28:35.901Z,22.80
2019-02-11T04:29:37.451Z,22.79
2019-02-11T04:30:38.703Z,22.79
2019-02-11T04:31:40.209Z,22.80
2019-02-11T04:32:41.576Z,22.80
2019-02-11T04:33:42.857Z,22.82
2019-02-11T04:34:44.324Z,22.83
2019-02-11T04:35:45.819Z,22.83
2019-02-11T04:36:47.103Z,22.84
2019-02-11T04:37:48.529Z,22.82
2019-02-11T04:38:50.098Z,22.83
2019-02-11T04:39:51.373Z,22.83
2019-02-11T04:40:52.653Z,22.82
2019-02-11T04:41:53.931Z,22.82
2019-02-11T04:42:55.324Z,22.82
2019-02-11T04:43:56.601Z,22.82
2019-02-11T04:44:57.923Z,22.81
2019-02-11T04:45:59.893Z,22.81
2019-02-11T04:47:01.190Z,22.80
2019-02-11T04:48:02.493Z,22.80
2019-02-11T04:49:04.005Z,22.80
2019-02-11T04:50:07.557Z,22.78
2019-02-11T04:51:08.992Z,22.79
2019-02-11T04:52:10.297Z,22.79
2019-02-11T04:53:11.542Z,22.79
2019-02-11T04:54:13.699Z,22.79
2019-02-11T04:55:15.013Z,22.78
2019-02-11T04:56:16.248Z,22.78
2019-02-11T04:57:17.482Z,22.79
2019-02-11T04:58:18.959Z,22.79
2019-02-11T04:59:20.294Z,22.79
2019-02-11T05:00:21.790Z,22.79
2019-02-11T05:01:23.312Z,22.80
2019-02-11T05:02:24.677Z,22.80
2019-02-11T05:03:26.104Z,22.79
2019-02-11T05:04:27.371Z,22.80
2019-02-11T05:05:28.608Z,22.80
2019-02-11T05:06:29.937Z,22.80
2019-02-11T05:07:31.236Z,22.81
2019-02-11T05:08:32.738Z,22.81
2019-02-11T05:09:34.046Z,22.82
2019-02-11T05:10:35.293Z,22.82
2019-02-11T05:11:36.828Z,22.81
2019-02-11T05:12:38.160Z,22.80
2019-02-11T05:13:39.492Z,22.79
2019-02-11T05:14:43.846Z,22.79
2019-02-11T05:15:44.108Z,22.78
2019-02-11T05:16:46.150Z,22.77
2019-02-11T05:17:47.426Z,22.76
2019-02-11T05:18:48.806Z,22.76
2019-02-11T05:19:50.074Z,22.76
2019-02-11T05:20:51.520Z,22.75
2019-02-11T05:21:54.878Z,22.75
2019-02-11T05:22:56.471Z,22.74
2019-02-11T05:23:57.942Z,22.74
2019-02-11T05:25:00.431Z,22.74
2019-02-11T05:26:01.714Z,22.73
2019-02-11T05:27:03.155Z,22.73
2019-02-11T05:28:04.656Z,22.74
2019-02-11T05:29:05.922Z,22.73
2019-02-11T05:30:08.940Z,22.73
2019-02-11T05:31:10.244Z,22.72
2019-02-11T05:32:11.472Z,22.74
2019-02-11T05:33:14.828Z,22.74
2019-02-11T05:34:17.773Z,22.72
2019-02-11T05:35:19.083Z,22.73
2019-02-11T05:36:20.324Z,22.74
2019-02-11T05:37:21.596Z,22.74
2019-02-11T05:38:22.905Z,22.73
2019-02-11T05:39:24.415Z,22.73
2019-02-11T05:40:25.909Z,22.74
2019-02-11T05:41:27.316Z,22.74
2019-02-11T05:42:28.749Z,22.74
2019-02-11T05:43:30.201Z,22.75
2019-02-11T05:44:32.347Z,22.75
2019-02-11T05:45:33.615Z,22.76
2019-02-11T05:46:34.859Z,22.76
2019-02-11T05:47:36.278Z,22.75
2019-02-11T05:48:37.567Z,22.75
2019-02-11T05:49:38.896Z,22.75
2019-02-11T05:50:40.224Z,22.74
2019-02-11T05:51:41.756Z,22.74
2019-02-11T05:52:43.079Z,22.72
2019-02-11T05:53:44.422Z,22.72
2019-02-11T05:54:45.796Z,22.72
2019-02-11T05:55:47.310Z,22.72
2019-02-11T05:56:48.564Z,22.72
2019-02-11T05:57:49.942Z,22.73
2019-02-11T05:58:52.002Z,22.74
2019-02-11T05:59:53.282Z,22.75
2019-02-11T06:00:57.022Z,22.75
2019-02-11T06:01:58.277Z,22.76
2019-02-11T06:02:59.590Z,22.74
2019-02-11T06:04:01.094Z,22.74
2019-02-11T06:05:04.084Z,22.74
2019-02-11T06:06:05.528Z,22.72
2019-02-11T06:07:06.896Z,22.73
2019-02-11T06:08:08.285Z,22.73
2019-02-11T06:09:09.537Z,22.73
2019-02-11T06:10:10.810Z,22.74
2019-02-11T06:11:12.182Z,22.73
2019-02-11T06:12:16.351Z,22.73
2019-02-11T06:13:18.457Z,22.73
2019-02-11T06:14:20.214Z,22.72
2019-02-11T06:15:21.681Z,22.72
2019-02-11T06:16:23.100Z,22.72
2019-02-11T06:17:24.649Z,22.73
2019-02-11T06:18:25.980Z,22.72
2019-02-11T06:19:27.376Z,22.73
2019-02-11T06:20:28.800Z,22.72
2019-02-11T06:21:30.118Z,22.72
2019-02-11T06:22:31.409Z,22.72
2019-02-11T06:23:32.968Z,22.72
2019-02-11T06:24:34.348Z,22.72
2019-02-11T06:25:35.672Z,22.71
2019-02-11T06:26:36.969Z,22.71
2019-02-11T06:27:40.103Z,22.74
2019-02-11T06:28:41.600Z,22.76
2019-02-11T06:29:43.007Z,22.79
2019-02-11T06:30:44.556Z,22.80
2019-02-11T06:31:45.962Z,22.81
2019-02-11T06:32:47.203Z,22.82
2019-02-11T06:33:48.857Z,22.81
2019-02-11T06:34:50.190Z,22.81
2019-02-11T06:35:51.495Z,22.81
2019-02-11T06:36:53.221Z,22.80
2019-02-11T06:37:54.629Z,22.79
2019-02-11T06:38:56.127Z,22.79
2019-02-11T06:39:57.380Z,22.78
2019-02-11T06:40:58.633Z,22.77
2019-02-11T06:42:00.076Z,22.76
2019-02-11T06:43:01.386Z,22.78
2019-02-11T06:44:03.034Z,22.75
2019-02-11T06:45:12.748Z,22.75
2019-02-11T06:46:09.854Z,22.75
2019-02-11T06:47:11.287Z,22.73
2019-02-11T06:48:12.599Z,22.73
2019-02-11T06:49:13.897Z,22.73
2019-02-11T06:50:15.160Z,22.72
2019-02-11T06:51:17.441Z,22.72
2019-02-11T06:52:18.720Z,22.72
2019-02-11T06:53:20.049Z,22.72
2019-02-11T06:54:21.386Z,22.71
2019-02-11T06:55:23.132Z,22.73
2019-02-11T06:56:24.436Z,22.73
2019-02-11T06:57:25.759Z,22.73
2019-02-11T06:58:27.490Z,22.73
2019-02-11T06:59:28.788Z,22.73
2019-02-11T07:00:30.056Z,22.74
2019-02-11T07:01:33.219Z,22.75
2019-02-11T07:02:34.458Z,22.75
2019-02-11T07:03:35.742Z,22.75
2019-02-11T07:04:37.092Z,22.75
2019-02-11T07:05:38.500Z,22.75
2019-02-11T07:06:39.825Z,22.73
2019-02-11T07:07:41.179Z,22.73
2019-02-11T07:08:42.688Z,22.73
2019-02-11T07:09:43.954Z,22.73
2019-02-11T07:10:45.312Z,22.72
2019-02-11T07:11:46.825Z,22.73
2019-02-11T07:12:48.124Z,22.72
2019-02-11T07:13:49.420Z,22.71
2019-02-11T07:14:50.864Z,22.73
2019-02-11T07:15:52.203Z,22.73
2019-02-11T07:16:53.458Z,22.74
2019-02-11T07:17:54.871Z,22.76
2019-02-11T07:18:56.173Z,22.78
2019-02-11T07:19:57.430Z,22.78
2019-02-11T07:20:58.735Z,22.81
2019-02-11T07:22:00.058Z,22.81
2019-02-11T07:23:01.625Z,22.82
2019-02-11T07:24:02.899Z,22.80
2019-02-11T07:25:05.919Z,22.81
2019-02-11T07:26:07.194Z,22.82
2019-02-11T07:27:08.518Z,22.82
2019-02-11T07:28:09.846Z,22.81
2019-02-11T07:29:11.126Z,22.82
2019-02-11T07:30:12.690Z,22.82
2019-02-11T07:31:14.153Z,22.82
2019-02-11T07:32:15.440Z,22.82
2019-02-11T07:33:18.497Z,22.82
2019-02-11T07:34:19.811Z,22.82
2019-02-11T07:35:21.129Z,22.81
2019-02-11T07:36:22.635Z,22.81
2019-02-11T07:37:24.241Z,22.80
2019-02-11T07:38:25.510Z,22.80
2019-02-11T07:39:26.947Z,22.80
2019-02-11T07:40:28.281Z,22.80
2019-02-11T07:41:31.487Z,22.80
2019-02-11T07:42:34.948Z,22.80
2019-02-11T07:43:41.017Z,22.80
2019-02-11T07:44:43.849Z,22.79
2019-02-11T07:45:50.157Z,22.81
2019-02-11T07:46:51.516Z,22.80
2019-02-11T07:47:53.064Z,22.80
2019-02-11T07:48:54.346Z,22.80
2019-02-11T07:49:55.633Z,22.81
2019-02-11T07:50:57.125Z,22.81
2019-02-11T07:51:58.598Z,22.81
2019-02-11T07:53:00.006Z,22.81
2019-02-11T07:54:01.370Z,22.81
2019-02-11T07:55:03.960Z,22.81
2019-02-11T07:56:05.276Z,22.81
2019-02-11T07:57:06.559Z,22.81
2019-02-11T07:58:07.834Z,22.82
2019-02-11T07:59:09.085Z,22.82
2019-02-11T08:00:10.460Z,22.82
2019-02-11T08:01:11.735Z,22.83
2019-02-11T08:02:13.343Z,22.82
2019-02-11T08:03:14.745Z,22.82
2019-02-11T08:04:15.999Z,22.82
2019-02-11T08:05:17.265Z,22.83
2019-02-11T08:06:18.682Z,22.83
2019-02-11T08:07:19.934Z,22.83
2019-02-11T08:08:21.267Z,22.84
2019-02-11T08:09:23.578Z,22.83
2019-02-11T08:10:24.918Z,22.83
2019-02-11T08:11:26.495Z,22.84
2019-02-11T08:12:28.230Z,22.85
2019-02-11T08:13:30.638Z,22.85
2019-02-11T08:14:31.909Z,22.85
2019-02-11T08:15:38.685Z,22.86
2019-02-11T08:16:36.988Z,22.86
2019-02-11T08:17:38.470Z,22.86
2019-02-11T08:18:40.070Z,22.87
2019-02-11T08:19:41.359Z,22.87
2019-02-11T08:20:42.972Z,22.87
2019-02-11T08:21:44.324Z,22.87
2019-02-11T08:22:45.711Z,22.86
2019-02-11T08:23:46.942Z,22.87
2019-02-11T08:24:48.199Z,22.87
2019-02-11T08:25:49.561Z,22.87
2019-02-11T08:26:50.976Z,22.87
2019-02-11T08:27:52.443Z,22.87
2019-02-11T08:28:53.917Z,22.87
2019-02-11T08:29:57.275Z,22.88
2019-02-11T08:30:58.734Z,22.90
2019-02-11T08:32:00.173Z,22.90
2019-02-11T08:33:03.041Z,22.91
2019-02-11T08:34:04.487Z,22.91
2019-02-11T08:35:06.724Z,22.91
2019-02-11T08:36:08.079Z,22.92
2019-02-11T08:37:09.346Z,22.92
2019-02-11T08:38:10.748Z,22.93
2019-02-11T08:39:13.261Z,22.93
2019-02-11T08:40:14.644Z,22.93
2019-02-11T08:41:16.099Z,22.93
2019-02-11T08:42:17.548Z,22.94
2019-02-11T08:43:19.103Z,22.94
2019-02-11T08:44:20.366Z,22.94
2019-02-11T08:45:21.801Z,22.94
2019-02-11T08:46:23.227Z,22.94
2019-02-11T08:47:24.900Z,22.96
2019-02-11T08:48:26.472Z,22.96
2019-02-11T08:49:27.775Z,22.97
2019-02-11T08:50:29.120Z,22.97
2019-02-11T08:51:30.559Z,22.97
2019-02-11T08:52:31.899Z,22.97
2019-02-11T08:53:33.216Z,22.97
2019-02-11T08:54:34.742Z,22.97
2019-02-11T08:55:36.007Z,22.97
2019-02-11T08:56:37.562Z,22.98
2019-02-11T08:57:39.908Z,22.98
2019-02-11T08:58:42.284Z,22.98
2019-02-11T08:59:43.656Z,22.98
2019-02-11T09:00:44.966Z,23.00
2019-02-11T09:01:46.241Z,23.00
2019-02-11T09:02:47.530Z,23.00
2019-02-11T09:03:48.829Z,23.01
2019-02-11T09:04:50.238Z,23.02
2019-02-11T09:05:53.185Z,23.02
2019-02-11T09:06:54.566Z,23.03
2019-02-11T09:07:56.050Z,23.03
2019-02-11T09:08:58.508Z,23.03
2019-02-11T09:09:59.958Z,23.03
2019-02-11T09:11:01.293Z,23.04
2019-02-11T09:12:02.844Z,23.04
2019-02-11T09:13:04.127Z,23.06
2019-02-11T09:14:05.402Z,23.06
2019-02-11T09:15:09.343Z,23.07
2019-02-11T09:16:12.043Z,23.07
2019-02-11T09:17:13.659Z,23.08
2019-02-11T09:18:15.085Z,23.08
2019-02-11T09:19:16.388Z,23.10
2019-02-11T09:20:17.823Z,23.10
2019-02-11T09:21:19.149Z,23.09
2019-02-11T09:22:20.697Z,23.11
2019-02-11T09:23:22.182Z,23.10
2019-02-11T09:24:23.527Z,23.11
2019-02-11T09:25:24.869Z,23.11
2019-02-11T09:26:26.315Z,23.13
2019-02-11T09:27:27.729Z,23.13
2019-02-11T09:28:29.387Z,23.13
2019-02-11T09:29:30.670Z,23.14
2019-02-11T09:30:32.209Z,23.14
2019-02-11T09:31:33.483Z,23.14
2019-02-11T09:32:34.793Z,23.14
2019-02-11T09:33:36.593Z,23.15
2019-02-11T09:34:37.997Z,23.16
2019-02-11T09:35:39.277Z,23.16
2019-02-11T09:36:42.796Z,23.17
2019-02-11T09:37:44.090Z,23.17
2019-02-11T09:38:45.409Z,23.17
2019-02-11T09:39:46.670Z,23.17
2019-02-11T09:40:48.064Z,23.17
2019-02-11T09:41:49.377Z,23.19
2019-02-11T09:42:51.638Z,23.20
2019-02-11T09:43:52.940Z,23.21
2019-02-11T09:44:54.236Z,23.21
2019-02-11T09:46:03.569Z,23.22
2019-02-11T09:46:58.938Z,23.22
2019-02-11T09:48:00.218Z,23.22
2019-02-11T09:49:01.638Z,23.24
2019-02-11T09:50:12.362Z,23.24
2019-02-11T09:51:13.906Z,23.26
2019-02-11T09:52:15.180Z,23.26
2019-02-11T09:53:16.446Z,23.27
2019-02-11T09:54:17.986Z,23.27
2019-02-11T09:55:22.282Z,23.27
2019-02-11T09:56:23.755Z,23.28
2019-02-11T09:57:25.302Z,23.29
2019-02-11T09:58:26.752Z,23.27
2019-02-11T09:59:28.020Z,23.27
2019-02-11T10:00:29.422Z,23.32
2019-02-11T10:01:30.864Z,23.31
2019-02-11T10:02:32.171Z,23.33
2019-02-11T10:03:33.451Z,23.33
2019-02-11T10:04:35.500Z,23.34
2019-02-11T10:05:36.799Z,23.34
2019-02-11T10:06:38.135Z,23.34
2019-02-11T10:07:39.697Z,23.36
2019-02-11T10:08:40.946Z,23.38
2019-02-11T10:09:44.486Z,23.37
2019-02-11T10:10:46.076Z,23.38
2019-02-11T10:11:47.442Z,23.38
2019-02-11T10:12:48.880Z,23.38
2019-02-11T10:13:50.388Z,23.40
2019-02-11T10:14:51.671Z,23.41
2019-02-11T10:15:53.426Z,23.41
2019-02-11T10:16:54.687Z,23.42
2019-02-11T10:17:55.922Z,23.42
2019-02-11T10:18:57.445Z,23.42
2019-02-11T10:19:58.787Z,23.42
2019-02-11T10:21:00.036Z,23.44
2019-02-11T10:22:01.367Z,23.43
2019-02-11T10:23:03.011Z,23.43
2019-02-11T10:24:04.287Z,23.44
2019-02-11T10:25:11.727Z,23.45
2019-02-11T10:26:13.246Z,23.45
2019-02-11T10:27:14.673Z,23.46
2019-02-11T10:28:16.022Z,23.46
2019-02-11T10:29:17.343Z,23.45
2019-02-11T10:30:18.602Z,23.47
2019-02-11T10:31:19.834Z,23.47
2019-02-11T10:32:21.218Z,23.48
2019-02-11T10:33:22.703Z,23.48
2019-02-11T10:34:23.963Z,23.49
2019-02-11T10:35:25.721Z,23.49
2019-02-11T10:36:28.610Z,23.49
2019-02-11T10:37:29.890Z,23.51
2019-02-11T10:38:36.476Z,23.51
2019-02-11T10:39:34.810Z,23.52
2019-02-11T10:40:39.200Z,23.52
2019-02-11T10:41:40.451Z,23.52
2019-02-11T10:42:41.784Z,23.52
2019-02-11T10:43:43.052Z,23.52
2019-02-11T10:44:44.378Z,23.53
2019-02-11T10:45:45.856Z,23.51
2019-02-11T10:46:47.241Z,23.51
2019-02-11T10:47:48.720Z,23.53
2019-02-11T10:48:50.187Z,23.53
2019-02-11T10:49:51.649Z,23.55
2019-02-11T10:50:54.233Z,23.55
2019-02-11T10:51:55.806Z,23.56
2019-02-11T10:52:57.282Z,23.55
2019-02-11T10:53:58.545Z,23.56
2019-02-11T10:54:59.840Z,23.53
2019-02-11T10:56:01.289Z,23.59
2019-02-11T10:57:02.585Z,23.59
2019-02-11T10:58:04.305Z,23.59
2019-02-11T10:59:07.751Z,23.59
2019-02-11T11:00:20.214Z,23.61
2019-02-11T11:01:21.551Z,23.61
2019-02-11T11:02:24.628Z,23.60
2019-02-11T11:03:25.996Z,23.59
2019-02-11T11:04:27.289Z,23.60
2019-02-11T11:05:28.971Z,23.60
2019-02-11T11:06:30.399Z,23.60
2019-02-11T11:07:31.646Z,23.62
2019-02-11T11:08:33.187Z,23.63
2019-02-11T11:09:34.506Z,23.63
2019-02-11T11:10:37.399Z,23.62
2019-02-11T11:11:38.993Z,23.62
2019-02-11T11:12:40.552Z,23.62
2019-02-11T11:13:41.918Z,23.61
2019-02-11T11:14:43.515Z,23.61
2019-02-11T11:15:44.938Z,23.60
2019-02-11T11:16:46.532Z,23.60
2019-02-11T11:17:48.131Z,23.60
2019-02-11T11:18:49.466Z,23.60
2019-02-11T11:19:50.917Z,23.60
2019-02-11T11:20:52.630Z,23.60
2019-02-11T11:21:53.918Z,23.58
2019-02-11T11:22:55.236Z,23.58
2019-02-11T11:23:56.871Z,23.58
2019-02-11T11:24:58.140Z,23.55
2019-02-11T11:25:59.626Z,23.54
2019-02-11T11:27:01.734Z,23.53
2019-02-11T11:28:03.221Z,23.52
2019-02-11T11:29:05.994Z,23.51
2019-02-11T11:30:14.843Z,23.49
2019-02-11T11:31:16.263Z,23.49
2019-02-11T11:32:17.672Z,23.48
2019-02-11T11:33:19.085Z,23.47
2019-02-11T11:34:20.350Z,23.45
2019-02-11T11:35:22.018Z,23.45
2019-02-11T11:36:23.680Z,23.45
2019-02-11T11:37:25.572Z,23.45
2019-02-11T11:38:26.818Z,23.44
2019-02-11T11:39:28.154Z,23.44
2019-02-11T11:40:29.526Z,23.44
2019-02-11T11:41:31.082Z,23.43
2019-02-11T11:42:32.473Z,23.42
2019-02-11T11:43:33.767Z,23.42
2019-02-11T11:44:35.219Z,23.42
2019-02-11T11:45:36.600Z,23.42
2019-02-11T11:46:46.768Z,23.40
2019-02-11T11:47:42.314Z,23.39
2019-02-11T11:48:43.835Z,23.38
2019-02-11T11:49:45.237Z,23.38
2019-02-11T11:50:46.535Z,23.37
2019-02-11T11:51:47.947Z,23.36
2019-02-11T11:52:49.467Z,23.36
2019-02-11T11:53:50.759Z,23.35
2019-02-11T11:54:52.145Z,23.34
2019-02-11T11:55:55.069Z,23.34
2019-02-11T11:56:59.300Z,23.34
2019-02-11T11:57:59.996Z,23.33
2019-02-11T11:59:02.582Z,23.33
2019-02-11T12:00:16.156Z,23.33
2019-02-11T12:01:19.307Z,23.32
2019-02-11T12:02:21.286Z,23.31
2019-02-11T12:03:22.551Z,23.32
2019-02-11T12:04:23.831Z,23.33
2019-02-11T12:05:25.088Z,23.33
2019-02-11T12:06:26.583Z,23.33
2019-02-11T12:07:27.932Z,23.33
2019-02-11T12:08:29.191Z,23.33
2019-02-11T12:09:30.604Z,23.34
2019-02-11T12:10:32.033Z,23.34
2019-02-11T12:11:34.471Z,23.32
2019-02-11T12:12:35.949Z,23.33
2019-02-11T12:13:37.250Z,23.32
2019-02-11T12:14:38.779Z,23.31
2019-02-11T12:15:40.085Z,23.30
2019-02-11T12:16:56.182Z,23.29
2019-02-11T12:17:45.627Z,23.28
2019-02-11T12:18:46.992Z,23.28
2019-02-11T12:19:48.365Z,23.26
2019-02-11T12:20:49.660Z,23.25
2019-02-11T12:21:50.979Z,23.24
2019-02-11T12:22:52.237Z,23.24
2019-02-11T12:23:53.724Z,23.25
2019-02-11T12:24:54.982Z,23.25
2019-02-11T12:25:56.605Z,23.27
2019-02-11T12:26:58.179Z,23.28
2019-02-11T12:28:00.553Z,23.28
2019-02-11T12:29:01.790Z,23.27
2019-02-11T12:30:07.140Z,23.27
2019-02-11T12:31:08.948Z,23.27
2019-02-11T12:32:10.275Z,23.26
2019-02-11T12:33:11.619Z,23.26
2019-02-11T12:34:13.913Z,23.24
2019-02-11T12:35:15.343Z,23.23
2019-02-11T12:36:16.866Z,23.23
2019-02-11T12:37:18.243Z,23.22
2019-02-11T12:38:19.774Z,23.23
2019-02-11T12:39:21.162Z,23.23
2019-02-11T12:40:22.562Z,23.22
2019-02-11T12:41:24.050Z,23.21
2019-02-11T12:42:25.335Z,23.21
2019-02-11T12:43:26.608Z,23.20
2019-02-11T12:44:27.951Z,23.22
2019-02-11T12:45:29.230Z,23.23
2019-02-11T12:46:30.485Z,23.23
2019-02-11T12:47:31.752Z,23.22
2019-02-11T12:48:33.272Z,23.22
2019-02-11T12:49:34.663Z,23.21
2019-02-11T12:50:38.254Z,23.21
2019-02-11T12:51:39.725Z,23.22
2019-02-11T12:52:40.999Z,23.21
2019-02-11T12:53:42.418Z,23.21
2019-02-11T12:54:43.875Z,23.22
2019-02-11T12:55:45.332Z,23.19
2019-02-11T12:56:46.743Z,23.19
2019-02-11T12:57:48.210Z,23.19
2019-02-11T12:58:50.957Z,23.19
2019-02-11T12:59:52.394Z,23.17
2019-02-11T13:00:53.669Z,23.19
2019-02-11T13:01:55.174Z,23.19
2019-02-11T13:02:56.717Z,23.19
2019-02-11T13:03:57.989Z,23.17
2019-02-11T13:04:59.382Z,23.17
2019-02-11T13:06:00.834Z,23.14
2019-02-11T13:07:02.187Z,23.13
2019-02-11T13:08:03.646Z,23.12
2019-02-11T13:09:05.144Z,23.11
2019-02-11T13:10:11.446Z,23.11
2019-02-11T13:11:12.823Z,23.08
2019-02-11T13:12:14.909Z,23.07
2019-02-11T13:13:16.415Z,23.06
2019-02-11T13:14:17.881Z,23.05